Kemmerer, WY

12:55 AM MST on November 21, 2019 (GMT -0700)
Kemmerer Municipal

Weather History for KEMM - October, 2019

Change the Weather History Date:

Monday, October 21, 2019

  Actual Average Record
Temperature  
Mean Temperature 30 °F -  
Max Temperature 35 °F 54 °F 75 °F (1952)
Min Temperature 26 °F 21 °F 3 °F (1976)
Degree Days  
Heating Degree Days 34    
Moisture  
Dew Point 25 °F    
Average Humidity 80    
Maximum Humidity 100    
Minimum Humidity 65    
Precipitation  
Precipitation 0.00 in - - ()
Sea Level Pressure  
Sea Level Pressure 30.15 in    
Wind  
Wind Speed 14 mph (West)    
Max Wind Speed 23 mph    
Max Gust Speed 31 mph    
Visibility 9 miles    
Events Snow    
Averages and records for this station are not official NWS values.
T = Trace of Precipitation, MM = Missing Value Source: NWS Daily Summary

Daily Weather History Graph

Daily Weather History Graph

Search for Another Location

Airport or City:

Astronomy

Oct. 21, 2019 Rise Set
Actual Time 7:41 AM MDT 6:31 PM MDT
Civil Twilight 7:12 AM MDT 7:00 PM MDT
Nautical Twilight 6:40 AM MDT 7:32 PM MDT
Astronomical Twilight 6:08 AM MDT 8:04 PM MDT
Moon No Moon Rise 3:05 PM MDT
Length of Visible Light 11h 47m
Length of Day
10h 50m
Waning Gibbous, 47% of the Moon is Illuminated
Oct 21
Waning Gibbous
Oct 27
New
Nov 4
First Quarter
Nov 12
Full
Nov 19
Last Quarter

Hourly Weather History & Observations

Time (MDT) Temp. Windchill Dew Point Humidity Pressure Visibility Wind Dir Wind Speed Gust Speed Precip Events Conditions
12:15 AM 26.6 °F 15.7 °F 21.2 °F 80% 30.05 in 10.0 mi WSW 12.7 mph - N/A   Scattered Clouds
12:35 AM 26.6 °F 17.5 °F 21.2 °F 80% 30.05 in 10.0 mi WSW 9.2 mph - N/A   Clear
12:55 AM 26.6 °F 14.7 °F 21.2 °F 80% 30.04 in 5.0 mi WSW 15.0 mph - N/A Snow Light Snow
1:15 AM 26.6 °F 17.5 °F 23.0 °F 86% 30.03 in 4.0 mi WSW 9.2 mph - N/A Snow Light Snow
1:35 AM 26.6 °F 16.8 °F 23.0 °F 86% 30.03 in 10.0 mi WSW 10.4 mph - N/A Snow Light Snow
1:55 AM 26.6 °F 17.5 °F 21.2 °F 80% 30.02 in 10.0 mi WSW 9.2 mph 17.3 mph N/A Snow Light Snow
2:35 AM 26.6 °F 13.8 °F 23.0 °F 86% 30.01 in 2.0 mi WSW 17.3 mph 21.9 mph N/A Snow Light Snow
2:55 AM 26.6 °F 14.3 °F 23.0 °F 86% 30.01 in 5.0 mi West 16.1 mph 21.9 mph N/A Snow Light Snow
3:15 AM 26.6 °F - 23.0 °F 86% 30.01 in 7.0 mi North - - N/A Snow Light Snow
3:35 AM 26.6 °F 14.7 °F 24.8 °F 93% 30.01 in 5.0 mi West 15.0 mph - N/A Snow Light Snow
3:55 AM 26.6 °F 14.3 °F 23.0 °F 86% 30.02 in 10.0 mi West 16.1 mph - N/A Snow Light Snow
4:15 AM 26.6 °F 15.2 °F 24.8 °F 93% 30.01 in 7.0 mi West 13.8 mph 20.7 mph N/A Snow Light Snow
4:35 AM 26.6 °F 13.8 °F 24.8 °F 93% 30.01 in 7.0 mi WSW 17.3 mph 21.9 mph N/A Snow Light Snow
4:55 AM 26.6 °F 14.3 °F 24.8 °F 93% 30.01 in 7.0 mi West 16.1 mph - N/A Snow Light Snow
5:15 AM 26.6 °F 13.4 °F 24.8 °F 93% 30.01 in 3.0 mi WSW 18.4 mph - N/A Snow Light Snow
5:35 AM 26.6 °F 13.4 °F 26.6 °F 100% 30.01 in 1.2 mi WSW 18.4 mph 24.2 mph N/A Snow Snow
5:55 AM 26.6 °F 12.0 °F 24.8 °F 93% 30.01 in 4.0 mi WSW 23.0 mph 26.5 mph N/A Snow Light Snow
6:15 AM 26.6 °F 12.4 °F 24.8 °F 93% 30.02 in 7.0 mi West 21.9 mph 27.6 mph N/A   Scattered Clouds
6:35 AM 26.6 °F 12.0 °F 26.6 °F 100% 30.02 in 5.0 mi West 23.0 mph 31.1 mph N/A Snow Light Snow
6:55 AM 28.4 °F 15.8 °F 26.6 °F 93% 30.04 in 10.0 mi West 18.4 mph 24.2 mph N/A   Mostly Cloudy
7:15 AM 28.4 °F 15.1 °F 26.6 °F 93% 30.05 in 10.0 mi West 20.7 mph - N/A   Overcast
7:35 AM 28.4 °F 15.8 °F 26.6 °F 93% 30.05 in 10.0 mi West 18.4 mph 24.2 mph N/A   Mostly Cloudy
7:55 AM 28.4 °F 15.8 °F 26.6 °F 93% 30.06 in 10.0 mi West 18.4 mph 23.0 mph N/A   Mostly Cloudy
8:15 AM 30.2 °F 17.8 °F 26.6 °F 86% 30.07 in 10.0 mi West 19.6 mph 25.3 mph N/A   Overcast
8:35 AM 30.2 °F 17.4 °F 26.6 °F 86% 30.08 in 10.0 mi West 20.7 mph 27.6 mph N/A   Mostly Cloudy
8:55 AM 32.0 °F 19.8 °F 26.6 °F 80% 30.09 in 10.0 mi West 20.7 mph 28.8 mph N/A   Overcast
9:15 AM 32.0 °F 19.5 °F 26.6 °F 80% 30.10 in 10.0 mi West 21.9 mph 28.8 mph N/A   Overcast
9:35 AM 32.0 °F 20.8 °F 26.6 °F 80% 30.12 in 10.0 mi West 17.3 mph 24.2 mph N/A   Mostly Cloudy
9:55 AM 32.0 °F 23.6 °F 26.6 °F 80% 30.13 in 10.0 mi West 10.4 mph 19.6 mph N/A   Mostly Cloudy
10:15 AM 32.0 °F 21.6 °F 26.6 °F 80% 30.14 in 10.0 mi West 15.0 mph 20.7 mph N/A   Overcast
10:35 AM 32.0 °F 23.6 °F 26.6 °F 80% 30.15 in 10.0 mi WNW 10.4 mph 17.3 mph N/A   Overcast
10:55 AM 32.0 °F 24.2 °F 26.6 °F 80% 30.16 in 10.0 mi West 9.2 mph - N/A   Overcast
11:15 AM 32.0 °F 22.1 °F 26.6 °F 80% 30.16 in 10.0 mi West 13.8 mph 20.7 mph N/A   Overcast
11:35 AM 32.0 °F 26.4 °F 26.6 °F 80% 30.17 in 10.0 mi West 5.8 mph 17.3 mph N/A   Overcast
11:55 AM 33.8 °F 22.8 °F 26.6 °F 75% 30.17 in 10.0 mi West 18.4 mph 21.9 mph N/A   Overcast
12:15 PM 33.8 °F 23.9 °F 24.8 °F 70% 30.18 in 10.0 mi WNW 15.0 mph 23.0 mph N/A   Overcast
12:35 PM 33.8 °F 23.2 °F 24.8 °F 70% 30.18 in 10.0 mi WNW 17.3 mph 24.2 mph N/A   Overcast
12:55 PM 33.8 °F 24.3 °F 24.8 °F 70% 30.18 in 10.0 mi WNW 13.8 mph 24.2 mph N/A   Overcast
1:15 PM 33.8 °F 22.2 °F 23.0 °F 65% 30.18 in 10.0 mi West 20.7 mph 25.3 mph N/A   Mostly Cloudy
1:35 PM 33.8 °F 22.8 °F 24.8 °F 70% 30.18 in 10.0 mi WNW 18.4 mph 25.3 mph N/A   Scattered Clouds
1:55 PM 35.6 °F 24.5 °F 24.8 °F 65% 30.19 in 10.0 mi West 20.7 mph 26.5 mph N/A   Scattered Clouds
2:15 PM 33.8 °F 22.5 °F 24.8 °F 70% 30.18 in 10.0 mi West 19.6 mph - N/A   Mostly Cloudy
2:35 PM 33.8 °F 22.2 °F 23.0 °F 65% 30.19 in 10.0 mi West 20.7 mph 27.6 mph N/A   Mostly Cloudy
2:55 PM 33.8 °F 22.8 °F 23.0 °F 65% 30.18 in 10.0 mi West 18.4 mph 27.6 mph N/A   Mostly Cloudy
3:15 PM 33.8 °F 22.8 °F 23.0 °F 65% 30.20 in 10.0 mi West 18.4 mph 27.6 mph N/A   Mostly Cloudy
3:35 PM 33.8 °F 23.5 °F 24.8 °F 70% 30.20 in 10.0 mi West 16.1 mph 23.0 mph N/A   Overcast
3:55 PM 33.8 °F 23.9 °F 24.8 °F 70% 30.21 in 10.0 mi West 15.0 mph 21.9 mph N/A   Overcast
4:15 PM 33.8 °F 23.5 °F 24.8 °F 70% 30.21 in 10.0 mi West 16.1 mph 23.0 mph N/A   Overcast
4:35 PM 33.8 °F 24.8 °F 26.6 °F 75% 30.23 in 10.0 mi West 12.7 mph 20.7 mph N/A   Overcast
4:55 PM 33.8 °F 24.8 °F 26.6 °F 75% 30.23 in 10.0 mi West 12.7 mph - N/A   Mostly Cloudy
5:15 PM 33.8 °F 23.9 °F 26.6 °F 75% 30.23 in 10.0 mi West 15.0 mph - N/A   Scattered Clouds
5:35 PM 33.8 °F 25.3 °F 26.6 °F 75% 30.24 in 10.0 mi West 11.5 mph - N/A   Mostly Cloudy
5:55 PM 33.8 °F 25.3 °F 26.6 °F 75% 30.25 in 10.0 mi West 11.5 mph 18.4 mph N/A   Scattered Clouds
6:15 PM 33.8 °F 25.3 °F 26.6 °F 75% 30.25 in 10.0 mi West 11.5 mph 16.1 mph N/A   Scattered Clouds
6:35 PM 32.0 °F 21.6 °F 26.6 °F 80% 30.25 in 10.0 mi West 15.0 mph 19.6 mph N/A   Scattered Clouds
6:55 PM 32.0 °F 22.5 °F 24.8 °F 75% 30.25 in 10.0 mi West 12.7 mph - N/A   Clear
7:15 PM 32.0 °F 24.2 °F 24.8 °F 75% 30.26 in 10.0 mi WNW 9.2 mph 16.1 mph N/A   Mostly Cloudy
7:35 PM 32.0 °F 24.8 °F 26.6 °F 80% 30.26 in 10.0 mi West 8.1 mph - N/A   Overcast
7:55 PM 32.0 °F 27.5 °F 26.6 °F 80% 30.26 in 10.0 mi West 4.6 mph - N/A   Overcast
8:15 PM 32.0 °F 26.4 °F 26.6 °F 80% 30.28 in 10.0 mi West 5.8 mph - N/A   Overcast
8:35 PM 32.0 °F 27.5 °F 26.6 °F 80% 30.28 in 10.0 mi West 4.6 mph - N/A   Overcast
8:55 PM 32.0 °F 28.7 °F 26.6 °F 80% 30.29 in 10.0 mi West 3.5 mph - N/A   Overcast
9:15 PM 32.0 °F 27.5 °F 26.6 °F 80% 30.29 in 10.0 mi West 4.6 mph - N/A   Overcast
9:35 PM 32.0 °F 28.7 °F 26.6 °F 80% 30.30 in 10.0 mi WSW 3.5 mph - N/A   Overcast
9:55 PM 32.0 °F - 26.6 °F 80% 30.30 in 10.0 mi Calm Calm - N/A   Overcast
10:15 PM 32.0 °F - 26.6 °F 80% 30.30 in 10.0 mi Calm Calm - N/A   Overcast
10:35 PM 32.0 °F - 26.6 °F 80% 30.30 in 10.0 mi Calm Calm - N/A   Overcast
10:55 PM 32.0 °F 27.5 °F 26.6 °F 80% 30.31 in 10.0 mi WSW 4.6 mph - N/A   Overcast
11:15 PM 32.0 °F 27.5 °F 26.6 °F 80% 30.31 in 10.0 mi WSW 4.6 mph - N/A   Overcast
11:35 PM 32.0 °F 27.5 °F 26.6 °F 80% 30.31 in 10.0 mi SW 4.6 mph - N/A   Overcast
11:55 PM 32.0 °F 28.7 °F 26.6 °F 80% 30.31 in 10.0 mi West 3.5 mph - N/A   Overcast